createdAt,value
2023-05-17T05:01:22.884Z,5.71
2023-05-17T05:03:51.684Z,5.78
2023-05-17T05:06:18.827Z,5.90
2023-05-17T05:12:14.795Z,6.17
2023-05-17T05:14:42.407Z,6.27
2023-05-17T05:17:10.208Z,6.33
2023-05-17T05:19:38.704Z,6.43
2023-05-17T05:22:06.946Z,6.55
2023-05-17T05:24:35.514Z,6.67
2023-05-17T05:27:04.411Z,6.79
2023-05-17T05:29:32.991Z,6.87
2023-05-17T05:32:00.397Z,6.96
2023-05-17T05:34:28.507Z,7.06
2023-05-17T05:36:56.036Z,7.17
2023-05-17T05:39:23.101Z,7.28
2023-05-17T05:41:52.153Z,7.37
2023-05-17T05:44:19.425Z,7.44
2023-05-17T05:46:48.427Z,7.52
2023-05-17T05:49:15.293Z,7.60
2023-05-17T05:51:43.274Z,7.65
2023-05-17T05:54:10.637Z,7.69
2023-05-17T05:56:38.150Z,7.79
2023-05-17T05:59:06.281Z,7.90
2023-05-17T06:01:34.377Z,7.98
2023-05-17T06:04:00.994Z,8.10
2023-05-17T06:06:28.392Z,8.26
2023-05-17T06:08:57.067Z,8.32
2023-05-17T06:11:26.386Z,8.36
2023-05-17T06:13:53.068Z,8.42
2023-05-17T06:16:20.407Z,8.49
2023-05-17T06:18:50.207Z,8.53
2023-05-17T06:21:18.772Z,8.59
2023-05-17T06:23:45.487Z,8.59
2023-05-17T06:26:12.751Z,8.64
2023-05-17T06:28:39.639Z,8.69
2023-05-17T06:31:06.910Z,8.70
2023-05-17T06:33:33.639Z,8.72
2023-05-17T06:38:32.610Z,8.89
2023-05-17T06:40:59.851Z,9.05
2023-05-17T06:43:26.562Z,9.23
2023-05-17T06:45:53.476Z,9.26
2023-05-17T06:48:20.889Z,9.30
2023-05-17T06:50:47.816Z,9.31
2023-05-17T06:53:15.284Z,9.26
2023-05-17T06:55:43.060Z,9.44
2023-05-17T06:58:10.449Z,9.57
2023-05-17T07:00:37.312Z,9.71
2023-05-17T07:03:04.430Z,9.86
2023-05-17T07:05:31.526Z,9.91
2023-05-17T07:07:59.540Z,9.92
2023-05-17T07:10:26.301Z,9.91
2023-05-17T07:12:53.645Z,9.96
2023-05-17T07:15:21.449Z,10.14
2023-05-17T07:17:48.749Z,10.26
2023-05-17T07:20:15.486Z,10.39
2023-05-17T07:22:42.857Z,10.51
2023-05-17T07:25:10.400Z,10.61
2023-05-17T07:27:37.693Z,10.66
2023-05-17T07:30:05.300Z,10.85
2023-05-17T07:32:32.421Z,11.02
2023-05-17T07:34:59.258Z,11.17
2023-05-17T07:37:26.462Z,11.19
2023-05-17T07:39:53.063Z,11.25
2023-05-17T07:42:20.319Z,11.40
2023-05-17T07:44:48.744Z,11.49
2023-05-17T07:47:16.635Z,11.58
2023-05-17T07:49:43.479Z,11.91
2023-05-17T07:52:10.846Z,12.02
2023-05-17T07:54:37.479Z,11.85
2023-05-17T07:57:04.871Z,11.57
2023-05-17T07:59:31.670Z,11.39
2023-05-17T08:01:59.012Z,11.25
2023-05-17T08:04:25.952Z,11.25
2023-05-17T08:06:55.640Z,11.37
2023-05-17T08:09:22.332Z,11.61
2023-05-17T08:11:49.344Z,11.66
2023-05-17T08:14:16.975Z,11.69
2023-05-17T08:16:46.333Z,12.12
2023-05-17T08:19:14.837Z,12.33
2023-05-17T08:21:43.084Z,12.66
2023-05-17T08:24:10.356Z,13.03
2023-05-17T08:26:37.953Z,13.34
2023-05-17T08:29:04.857Z,13.37
2023-05-17T08:31:33.191Z,13.32
2023-05-17T08:34:00.095Z,13.36
2023-05-17T08:36:30.432Z,13.59
2023-05-17T08:38:57.136Z,13.84
2023-05-17T08:41:24.097Z,13.87
2023-05-17T08:43:51.751Z,14.13
2023-05-17T08:46:21.988Z,14.33
2023-05-17T08:48:53.245Z,14.48
2023-05-17T08:51:22.139Z,14.20
2023-05-17T08:53:50.339Z,14.05
2023-05-17T08:56:21.102Z,14.19
2023-05-17T09:01:19.597Z,14.83
2023-05-17T09:03:50.693Z,14.86
2023-05-17T09:06:21.797Z,15.13
2023-05-17T09:08:52.652Z,15.46
2023-05-17T09:11:33.814Z,15.46
2023-05-17T09:14:02.084Z,15.40
2023-05-17T09:16:30.613Z,14.87
2023-05-17T09:18:58.637Z,14.83
2023-05-17T09:21:27.656Z,14.47
2023-05-17T09:24:05.413Z,14.56
2023-05-17T09:26:41.986Z,14.81
2023-05-17T09:29:13.763Z,14.97
2023-05-17T09:31:41.895Z,15.03
2023-05-17T09:34:09.469Z,15.11
2023-05-17T09:36:38.678Z,15.03
2023-05-17T09:39:10.442Z,14.93
2023-05-17T09:41:48.433Z,15.02
2023-05-17T09:44:15.891Z,14.96
2023-05-17T09:46:46.347Z,14.83
2023-05-17T09:49:13.892Z,14.88
2023-05-17T09:51:43.383Z,14.63
2023-05-17T09:54:10.979Z,14.69
2023-05-17T09:56:38.423Z,14.81
2023-05-17T09:59:13.062Z,14.97
2023-05-17T10:01:41.928Z,15.19
2023-05-17T10:04:10.598Z,15.21
2023-05-17T10:06:49.815Z,15.17
2023-05-17T10:09:21.606Z,15.34
2023-05-17T10:11:50.930Z,15.54
2023-05-17T10:14:24.691Z,15.31
2023-05-17T10:16:52.623Z,15.27
2023-05-17T10:19:21.104Z,15.08
2023-05-17T10:21:51.274Z,15.17
2023-05-17T10:24:19.704Z,15.15
2023-05-17T10:26:47.001Z,15.03
2023-05-17T10:29:15.673Z,15.17
2023-05-17T10:31:44.084Z,15.25
2023-05-17T10:34:11.992Z,15.16
2023-05-17T10:36:40.880Z,15.19
2023-05-17T10:39:11.008Z,15.04
2023-05-17T10:41:43.370Z,15.20
2023-05-17T10:44:14.986Z,15.22
2023-05-17T10:47:00.310Z,15.18
2023-05-17T10:49:31.318Z,15.44
2023-05-17T10:51:59.456Z,15.72
2023-05-17T10:54:35.807Z,16.10
2023-05-17T10:57:08.384Z,15.88
2023-05-17T10:59:36.362Z,15.47
2023-05-17T11:02:04.760Z,15.44
2023-05-17T11:04:31.684Z,15.29
2023-05-17T11:07:22.369Z,15.47
2023-05-17T11:10:06.641Z,15.65
2023-05-17T11:12:38.444Z,15.56
2023-05-17T11:15:11.456Z,15.68
2023-05-17T11:17:44.266Z,15.93
2023-05-17T11:20:27.246Z,16.16
2023-05-17T11:23:16.623Z,16.14
2023-05-17T11:25:45.296Z,15.87
2023-05-17T11:28:20.854Z,15.55
2023-05-17T11:30:52.328Z,15.74
2023-05-17T11:33:33.073Z,15.94
2023-05-17T11:36:14.624Z,16.25
2023-05-17T11:38:41.391Z,16.40
2023-05-17T11:43:50.606Z,16.67
2023-05-17T11:46:25.091Z,16.38
2023-05-17T11:48:53.475Z,15.97
2023-05-17T11:51:23.889Z,15.89
2023-05-17T11:53:55.454Z,16.15
2023-05-17T11:56:35.914Z,16.49
2023-05-17T11:59:10.307Z,16.76
2023-05-17T12:01:47.070Z,16.94
2023-05-17T12:04:13.898Z,16.91
2023-05-17T12:06:41.828Z,16.61
2023-05-17T12:09:11.223Z,16.89
2023-05-17T12:11:39.949Z,17.21
2023-05-17T12:14:07.261Z,17.16
2023-05-17T12:16:37.100Z,17.29
2023-05-17T12:19:03.903Z,17.50
2023-05-17T12:21:31.023Z,17.00
2023-05-17T12:23:57.684Z,17.13
2023-05-17T12:26:24.700Z,17.24
2023-05-17T12:28:59.732Z,17.33
2023-05-17T12:31:34.523Z,17.75
2023-05-17T12:34:05.621Z,17.81
2023-05-17T12:36:34.289Z,17.94
2023-05-17T12:39:01.668Z,17.90
2023-05-17T12:41:30.371Z,17.74
2023-05-17T12:44:13.652Z,17.95
2023-05-17T12:46:42.796Z,18.22
2023-05-17T12:49:11.847Z,17.78
2023-05-17T12:51:46.462Z,17.67
2023-05-17T12:54:31.545Z,17.71
2023-05-17T12:56:58.886Z,17.73
2023-05-17T12:59:26.075Z,17.84
2023-05-17T13:01:56.077Z,17.77
2023-05-17T13:04:33.620Z,17.76
2023-05-17T13:07:02.946Z,17.84
2023-05-17T13:09:31.226Z,18.00
2023-05-17T13:12:01.257Z,18.15
2023-05-17T13:14:37.333Z,18.31
2023-05-17T13:17:06.264Z,18.30
2023-05-17T13:19:33.708Z,18.29
2023-05-17T13:22:01.173Z,18.14
2023-05-17T13:24:28.188Z,18.08
2023-05-17T13:26:55.452Z,18.04
2023-05-17T13:29:31.898Z,18.29
2023-05-17T13:32:07.042Z,18.47
2023-05-17T13:34:33.707Z,18.51
2023-05-17T13:37:01.264Z,18.64
2023-05-17T13:39:27.832Z,18.36
2023-05-17T13:41:55.121Z,18.34
2023-05-17T13:44:21.934Z,18.13
2023-05-17T13:46:49.165Z,18.05
2023-05-17T13:49:17.256Z,18.03
2023-05-17T13:51:45.264Z,17.91
2023-05-17T13:54:12.579Z,17.91
2023-05-17T13:56:39.927Z,18.13
2023-05-17T13:59:06.860Z,18.15
2023-05-17T14:01:34.151Z,18.06
2023-05-17T14:04:01.065Z,18.14
2023-05-17T14:06:28.826Z,18.25
2023-05-17T14:08:57.616Z,17.91
2023-05-17T14:11:24.916Z,18.01
2023-05-17T14:13:51.749Z,17.99
2023-05-17T14:16:18.621Z,18.19
2023-05-17T14:18:46.317Z,18.13
2023-05-17T14:21:13.788Z,17.98
2023-05-17T14:23:40.451Z,17.74
2023-05-17T14:26:07.820Z,17.39
2023-05-17T14:28:38.179Z,17.25
2023-05-17T14:31:10.244Z,17.01
2023-05-17T14:33:36.977Z,16.65
2023-05-17T14:36:04.617Z,16.46
2023-05-17T14:38:31.453Z,16.35
2023-05-17T14:41:00.900Z,16.32
2023-05-17T14:43:28.040Z,16.37
2023-05-17T14:45:55.354Z,16.44
2023-05-17T14:48:22.332Z,16.32
2023-05-17T14:50:49.875Z,16.50
2023-05-17T14:53:16.569Z,16.40
2023-05-17T14:55:43.969Z,16.21
2023-05-17T14:58:13.468Z,16.06
2023-05-17T15:00:42.090Z,16.12
2023-05-17T15:03:09.196Z,16.16
2023-05-17T15:05:38.147Z,16.23
2023-05-17T15:08:04.997Z,16.32
2023-05-17T15:10:32.372Z,16.41
2023-05-17T15:12:59.004Z,16.32
2023-05-17T15:15:25.935Z,16.09
2023-05-17T15:17:53.274Z,16.14
2023-05-17T15:20:20.609Z,16.20
2023-05-17T15:22:48.139Z,16.28
2023-05-17T15:25:15.495Z,16.18
2023-05-17T15:27:42.789Z,16.22
2023-05-17T15:30:12.573Z,16.22
2023-05-17T15:32:43.678Z,16.30
2023-05-17T15:35:10.444Z,16.19
2023-05-17T15:37:37.659Z,16.03
2023-05-17T15:40:09.365Z,15.94
2023-05-17T15:42:36.392Z,15.79
2023-05-17T15:45:03.806Z,15.45
2023-05-17T15:47:42.505Z,15.25
2023-05-17T15:50:11.292Z,15.19
2023-05-17T15:52:38.383Z,15.04
2023-05-17T15:55:06.825Z,14.75
2023-05-17T15:57:34.479Z,14.51
2023-05-17T16:00:01.362Z,14.35
2023-05-17T16:02:28.685Z,14.31
2023-05-17T16:04:55.557Z,14.20
2023-05-17T16:07:23.257Z,14.09
2023-05-17T16:09:49.822Z,13.98
2023-05-17T16:12:17.980Z,13.95
2023-05-17T16:14:45.430Z,13.88
2023-05-17T16:17:13.479Z,13.74
2023-05-17T16:19:40.375Z,13.64
2023-05-17T16:22:07.958Z,13.51
2023-05-17T16:24:35.196Z,13.48
2023-05-17T16:27:04.717Z,13.45
2023-05-17T16:29:35.500Z,13.45
2023-05-17T16:32:02.519Z,13.38
2023-05-17T16:34:29.274Z,13.37
2023-05-17T16:36:56.620Z,13.35
2023-05-17T16:39:23.299Z,13.27
2023-05-17T16:41:51.288Z,13.26
2023-05-17T16:44:17.934Z,13.19
2023-05-17T16:46:45.352Z,13.19
2023-05-17T16:49:12.147Z,13.19
2023-05-17T16:51:39.401Z,13.15
2023-05-17T16:54:06.063Z,13.12
2023-05-17T16:56:34.011Z,13.10
2023-05-17T16:59:00.561Z,13.10
2023-05-17T17:01:27.923Z,13.08
2023-05-17T17:03:56.658Z,13.05
2023-05-17T17:06:24.066Z,13.02
2023-05-17T17:08:50.631Z,12.94
2023-05-17T17:11:22.193Z,12.86
2023-05-17T17:13:49.484Z,12.74
2023-05-17T17:16:17.679Z,12.58
2023-05-17T17:21:25.692Z,12.34
2023-05-17T17:23:52.330Z,12.30
2023-05-17T17:26:19.700Z,12.23
2023-05-17T17:28:46.306Z,12.20
2023-05-17T17:31:13.560Z,12.16
2023-05-17T17:33:40.303Z,12.15
2023-05-17T17:36:09.388Z,12.07
2023-05-17T17:38:36.079Z,12.10
2023-05-17T17:41:03.533Z,12.03
2023-05-17T17:43:30.147Z,12.01
2023-05-17T17:45:57.308Z,11.97
2023-05-17T17:48:25.452Z,11.92
2023-05-17T17:53:34.527Z,11.84
2023-05-17T17:56:01.786Z,11.80
2023-05-17T17:58:28.513Z,11.78
2023-05-17T18:00:55.711Z,11.71
2023-05-17T18:03:24.286Z,11.69
2023-05-17T18:05:51.746Z,11.60
2023-05-17T18:08:19.202Z,11.55
2023-05-17T18:10:46.819Z,11.51
2023-05-17T18:13:15.235Z,11.48
2023-05-17T18:15:42.468Z,11.47
2023-05-17T18:18:09.123Z,11.44
2023-05-17T18:20:36.613Z,11.38
2023-05-17T18:23:03.381Z,11.33
2023-05-17T18:25:30.713Z,11.29
2023-05-17T18:27:57.312Z,11.27
2023-05-17T18:30:25.147Z,11.25
2023-05-17T18:32:51.838Z,11.24
2023-05-17T18:35:19.099Z,11.23
2023-05-17T18:37:45.720Z,11.22
2023-05-17T18:40:14.539Z,11.16
2023-05-17T18:42:41.180Z,11.14
2023-05-17T18:45:08.624Z,11.11
2023-05-17T18:47:35.405Z,11.07
2023-05-17T18:50:02.579Z,11.04
2023-05-17T18:52:29.165Z,11.02
2023-05-17T18:54:56.191Z,10.98
2023-05-17T18:57:22.802Z,10.96
2023-05-17T18:59:49.748Z,10.94
2023-05-17T19:02:16.374Z,10.89
2023-05-17T19:04:44.571Z,10.87
2023-05-17T19:07:11.198Z,10.86
2023-05-17T19:09:39.049Z,10.83
2023-05-17T19:12:06.314Z,10.80
2023-05-17T19:14:33.587Z,10.80
2023-05-17T19:17:00.441Z,10.77
2023-05-17T19:19:27.769Z,10.76
2023-05-17T19:21:54.457Z,10.74
2023-05-17T19:24:21.680Z,10.72
2023-05-17T19:26:48.285Z,10.69
2023-05-17T19:29:15.557Z,10.66
2023-05-17T19:31:42.231Z,10.64
2023-05-17T19:34:09.708Z,10.61
2023-05-17T19:36:36.294Z,10.61
2023-05-17T19:39:03.667Z,10.59
2023-05-17T19:41:30.459Z,10.57
2023-05-17T19:43:57.712Z,10.55
2023-05-17T19:46:24.471Z,10.53
2023-05-17T19:48:52.860Z,10.49
2023-05-17T19:51:19.574Z,10.45
2023-05-17T19:53:53.498Z,10.41
2023-05-17T19:56:23.885Z,10.34
2023-05-17T19:58:51.470Z,10.27
2023-05-17T20:01:18.251Z,10.26
2023-05-17T20:03:45.973Z,10.21
2023-05-17T20:06:14.880Z,10.13
2023-05-17T20:08:42.742Z,10.08
2023-05-17T20:11:09.568Z,10.04
2023-05-17T20:13:40.687Z,9.94
2023-05-17T20:16:14.691Z,9.84
2023-05-17T20:18:43.242Z,9.77
2023-05-17T20:21:12.426Z,9.71
2023-05-17T20:23:40.004Z,9.64
2023-05-17T20:26:06.724Z,9.57
2023-05-17T20:28:34.016Z,9.46
